createdAt,value
2024-03-02T00:00:28.431Z,167.33
2024-03-02T00:01:32.529Z,169.83
2024-03-02T00:02:44.004Z,179.33
2024-03-02T00:03:47.682Z,186.50
2024-03-02T00:04:51.058Z,188.83
2024-03-02T00:05:54.346Z,180.50
2024-03-02T00:06:57.700Z,177.33
2024-03-02T00:08:01.491Z,182.17
2024-03-02T00:09:05.740Z,184.83
2024-03-02T00:10:15.631Z,206.00
2024-03-02T00:11:20.211Z,227.50
2024-03-02T00:12:24.603Z,225.33
2024-03-02T00:13:28.177Z,218.17
2024-03-02T00:14:31.581Z,196.00
2024-03-02T00:15:52.903Z,181.00
2024-03-02T00:16:58.266Z,171.00
2024-03-02T00:18:02.669Z,169.83
2024-03-02T00:19:10.593Z,169.00
2024-03-02T00:20:22.987Z,157.17
2024-03-02T00:21:31.924Z,146.17
2024-03-02T00:22:38.586Z,140.00
2024-03-02T00:23:42.743Z,147.00
2024-03-02T00:24:47.295Z,154.33
2024-03-02T00:25:56.560Z,159.00
2024-03-02T00:27:00.013Z,161.00
2024-03-02T00:28:08.852Z,162.67
2024-03-02T00:29:14.744Z,205.67
2024-03-02T00:30:52.343Z,230.17
2024-03-02T00:31:58.258Z,197.83
2024-03-02T00:33:02.587Z,196.83
2024-03-02T00:34:12.846Z,207.17
2024-03-02T00:35:16.357Z,220.50
2024-03-02T00:36:26.365Z,236.67
2024-03-02T00:37:30.972Z,243.50
2024-03-02T00:38:35.837Z,223.33
2024-03-02T00:39:39.554Z,218.50
2024-03-02T00:40:46.234Z,216.50
2024-03-02T00:41:59.329Z,215.17
2024-03-02T00:43:04.739Z,214.17
2024-03-02T00:44:14.180Z,214.83
2024-03-02T00:45:18.233Z,214.00
2024-03-02T00:46:21.619Z,212.33
2024-03-02T00:47:25.590Z,207.33
2024-03-02T00:48:29.633Z,198.33
2024-03-02T00:49:32.860Z,191.50
2024-03-02T00:50:36.260Z,185.67
2024-03-02T00:51:40.878Z,159.50
2024-03-02T00:52:44.994Z,138.33
2024-03-02T00:53:49.252Z,134.17
2024-03-02T00:54:53.432Z,142.50
2024-03-02T00:55:57.078Z,159.67
2024-03-02T00:57:03.260Z,164.00
2024-03-02T00:58:06.340Z,165.17
2024-03-02T00:59:12.337Z,166.50
2024-03-02T01:00:20.145Z,167.67
2024-03-02T01:01:24.533Z,167.17
2024-03-02T01:02:33.582Z,167.83
2024-03-02T01:03:38.537Z,168.00
2024-03-02T01:04:42.761Z,168.00
2024-03-02T01:05:46.971Z,168.67
2024-03-02T01:06:50.886Z,167.83
2024-03-02T01:07:56.348Z,164.00
2024-03-02T01:09:01.848Z,158.83
2024-03-02T01:10:05.433Z,161.33
2024-03-02T01:11:09.401Z,178.67
2024-03-02T01:12:17.210Z,182.17
2024-03-02T01:13:20.266Z,183.50
2024-03-02T01:14:24.124Z,183.67
2024-03-02T01:15:27.389Z,198.17
2024-03-02T01:16:31.017Z,199.83
2024-03-02T01:17:34.381Z,193.50
2024-03-02T01:18:41.186Z,192.00
2024-03-02T01:19:45.639Z,204.33
2024-03-02T01:20:50.955Z,219.83
2024-03-02T01:21:54.356Z,217.00
2024-03-02T01:23:00.450Z,213.83
2024-03-02T01:24:04.946Z,209.50
2024-03-02T01:25:10.330Z,203.00
2024-03-02T01:26:13.994Z,192.00
2024-03-02T01:27:17.128Z,185.50
2024-03-02T01:28:23.045Z,168.33
2024-03-02T01:29:32.666Z,154.33
2024-03-02T01:30:36.402Z,154.83
2024-03-02T01:31:43.402Z,154.67
2024-03-02T01:32:46.801Z,154.17
2024-03-02T01:33:50.764Z,149.33
2024-03-02T01:34:57.547Z,144.50
2024-03-02T01:36:03.239Z,140.50
2024-03-02T01:37:06.750Z,139.67
2024-03-02T01:38:13.301Z,140.33
2024-03-02T01:39:17.155Z,145.17
2024-03-02T01:40:28.232Z,147.50
2024-03-02T01:41:33.029Z,148.67
2024-03-02T01:42:42.983Z,151.17
2024-03-02T01:43:46.396Z,163.33
2024-03-02T01:44:50.533Z,172.83
2024-03-02T01:45:56.359Z,186.67
2024-03-02T01:46:59.786Z,200.67
2024-03-02T01:48:03.042Z,206.67
2024-03-02T01:49:07.805Z,223.17
2024-03-02T01:50:14.604Z,227.00
2024-03-02T01:51:17.742Z,230.33
2024-03-02T01:52:21.723Z,309.33
2024-03-02T01:53:25.679Z,369.83
2024-03-02T01:54:28.728Z,355.33
2024-03-02T01:55:32.326Z,315.67
2024-03-02T01:56:35.561Z,283.50
2024-03-02T01:57:39.290Z,265.17
2024-03-02T01:58:44.736Z,232.00
2024-03-02T01:59:54.544Z,211.17
2024-03-02T02:01:01.853Z,213.00
2024-03-02T02:02:06.764Z,223.00
2024-03-02T02:03:13.717Z,226.83
2024-03-02T02:04:16.821Z,235.17
2024-03-02T02:05:19.925Z,248.67
2024-03-02T02:06:29.076Z,254.17
2024-03-02T02:07:34.347Z,255.67
2024-03-02T02:08:49.752Z,253.67
2024-03-02T02:09:53.199Z,252.17
2024-03-02T02:10:56.579Z,252.17
2024-03-02T02:12:00.763Z,251.33
2024-03-02T02:13:04.460Z,251.00
2024-03-02T02:14:08.514Z,250.67
2024-03-02T02:15:34.308Z,251.17
2024-03-02T02:16:38.104Z,258.83
2024-03-02T02:17:45.429Z,279.33
2024-03-02T02:18:48.638Z,286.17
2024-03-02T02:19:52.351Z,280.50
2024-03-02T02:20:55.897Z,273.17
2024-03-02T02:22:00.591Z,269.00
2024-03-02T02:23:14.173Z,259.50
2024-03-02T02:24:17.560Z,252.00
2024-03-02T02:25:20.981Z,247.17
2024-03-02T02:26:24.185Z,237.17
2024-03-02T02:27:27.595Z,230.67
2024-03-02T02:28:34.539Z,222.83
2024-03-02T02:29:38.185Z,199.83
2024-03-02T02:30:41.449Z,202.00
2024-03-02T02:31:47.331Z,202.33
2024-03-02T02:32:50.999Z,201.83
2024-03-02T02:33:54.710Z,204.33
2024-03-02T02:34:58.251Z,207.00
2024-03-02T02:36:01.545Z,207.67
2024-03-02T02:37:05.351Z,209.50
2024-03-02T02:38:08.813Z,212.00
2024-03-02T02:39:18.138Z,227.67
2024-03-02T02:40:22.977Z,248.00
2024-03-02T02:41:26.338Z,266.00
2024-03-02T02:42:30.127Z,273.17
2024-03-02T02:43:33.553Z,278.33
2024-03-02T02:44:36.805Z,287.67
2024-03-02T02:45:40.112Z,304.67
2024-03-02T02:46:45.323Z,323.50
2024-03-02T02:47:49.986Z,338.83
2024-03-02T02:48:55.566Z,313.50
2024-03-02T02:49:58.700Z,305.00
2024-03-02T02:51:04.669Z,294.33
2024-03-02T02:52:07.878Z,274.83
2024-03-02T02:53:14.150Z,205.50
2024-03-02T02:54:17.934Z,163.17
2024-03-02T02:55:21.402Z,147.67
2024-03-02T02:56:26.208Z,138.83
2024-03-02T02:57:31.503Z,139.83
2024-03-02T02:58:34.957Z,130.33
2024-03-02T02:59:39.541Z,118.33
2024-03-02T03:00:44.784Z,103.50
2024-03-02T03:01:49.628Z,89.00
2024-03-02T03:02:56.588Z,90.67
2024-03-02T03:04:02.745Z,90.17
2024-03-02T03:05:12.087Z,84.50
2024-03-02T03:06:16.820Z,84.17
2024-03-02T03:07:21.535Z,70.83
2024-03-02T03:08:26.572Z,81.50
2024-03-02T03:09:30.353Z,86.00
2024-03-02T03:10:35.744Z,83.83
2024-03-02T03:11:39.602Z,86.00
2024-03-02T03:12:45.213Z,91.83
2024-03-02T03:13:50.558Z,93.67
2024-03-02T03:14:54.760Z,90.17
2024-03-02T03:15:58.876Z,94.17
2024-03-02T03:17:04.539Z,95.83
2024-03-02T03:18:09.434Z,97.00
2024-03-02T03:19:12.720Z,100.00
2024-03-02T03:20:17.029Z,121.33
2024-03-02T03:21:20.975Z,157.00
2024-03-02T03:22:25.400Z,154.50
2024-03-02T03:23:31.552Z,166.33
2024-03-02T03:24:34.798Z,170.50
2024-03-02T03:25:38.310Z,178.67
2024-03-02T03:26:41.370Z,187.67
2024-03-02T03:27:44.768Z,194.17
2024-03-02T03:28:49.458Z,185.83
2024-03-02T03:29:53.650Z,183.67
2024-03-02T03:30:57.684Z,175.17
2024-03-02T03:32:00.998Z,171.83
2024-03-02T03:33:04.643Z,169.00
2024-03-02T03:34:15.453Z,165.67
2024-03-02T03:35:20.536Z,146.50
2024-03-02T03:36:24.729Z,121.17
2024-03-02T03:37:35.825Z,98.00
2024-03-02T03:38:40.605Z,90.83
2024-03-02T03:39:44.258Z,89.00
2024-03-02T03:40:47.442Z,90.67
2024-03-02T03:41:50.796Z,93.33
2024-03-02T03:42:59.773Z,102.00
2024-03-02T03:44:05.956Z,106.17
2024-03-02T03:45:09.703Z,108.00
2024-03-02T03:46:13.499Z,109.17
2024-03-02T03:47:16.926Z,111.17
2024-03-02T03:48:25.480Z,134.67
2024-03-02T03:49:28.614Z,147.50
2024-03-02T03:50:36.060Z,140.17
2024-03-02T03:51:39.756Z,134.50
2024-03-02T03:52:42.987Z,127.67
2024-03-02T03:53:46.885Z,114.33
2024-03-02T03:54:51.504Z,104.33
2024-03-02T03:55:58.673Z,96.67
2024-03-02T03:57:02.623Z,87.60
2024-03-02T03:58:06.757Z,75.00
2024-03-02T03:59:11.515Z,68.17
2024-03-02T04:00:16.998Z,64.00
2024-03-02T04:01:25.586Z,61.67
2024-03-02T04:02:29.025Z,62.67
2024-03-02T04:03:35.269Z,60.83
2024-03-02T04:04:39.264Z,59.50
2024-03-02T04:05:45.518Z,66.00
2024-03-02T04:06:48.928Z,68.83
2024-03-02T04:07:52.823Z,70.83
2024-03-02T04:08:59.908Z,74.67
2024-03-02T04:10:05.695Z,80.17
2024-03-02T04:11:09.414Z,82.83
2024-03-02T04:12:16.527Z,91.17
2024-03-02T04:13:20.035Z,94.33
2024-03-02T04:14:24.936Z,97.17
2024-03-02T04:15:28.629Z,99.17
2024-03-02T04:16:31.696Z,98.33
2024-03-02T04:17:37.863Z,98.67
2024-03-02T04:18:41.103Z,101.17
2024-03-02T04:19:45.663Z,107.00
2024-03-02T04:20:50.392Z,120.50
2024-03-02T04:21:55.127Z,127.00
2024-03-02T04:23:01.007Z,127.33
2024-03-02T04:24:04.570Z,133.17
2024-03-02T04:25:11.612Z,125.00
2024-03-02T04:26:16.181Z,123.67
2024-03-02T04:27:20.075Z,123.17
2024-03-02T04:28:23.600Z,120.00
2024-03-02T04:29:27.207Z,103.00
2024-03-02T04:30:33.615Z,79.67
2024-03-02T04:31:37.489Z,71.67
2024-03-02T04:32:47.273Z,65.83
2024-03-02T04:33:51.030Z,57.17
2024-03-02T04:34:55.885Z,56.83
2024-03-02T04:35:59.620Z,57.17
2024-03-02T04:37:02.874Z,55.00
2024-03-02T04:38:06.100Z,56.00
2024-03-02T04:39:11.116Z,62.17
2024-03-02T04:40:16.702Z,68.17
2024-03-02T04:41:20.585Z,91.00
2024-03-02T04:42:27.316Z,107.83
2024-03-02T04:43:30.814Z,106.67
2024-03-02T04:44:34.210Z,100.67
2024-03-02T04:45:40.007Z,101.67
2024-03-02T04:46:43.301Z,105.33
2024-03-02T04:47:49.376Z,108.50
2024-03-02T04:48:57.158Z,104.67
2024-03-02T04:50:02.527Z,103.33
2024-03-02T04:51:05.631Z,105.17
2024-03-02T04:52:08.932Z,109.67
2024-03-02T04:53:12.361Z,113.00
2024-03-02T04:54:16.495Z,111.67
2024-03-02T04:55:28.623Z,112.33
2024-03-02T04:56:33.614Z,112.17
2024-03-02T04:57:37.361Z,114.17
2024-03-02T04:58:41.074Z,119.33
2024-03-02T04:59:47.567Z,123.67
2024-03-02T05:00:51.695Z,125.83
2024-03-02T05:01:54.891Z,124.00
2024-03-02T05:03:00.380Z,121.33
2024-03-02T05:04:04.074Z,111.67
2024-03-02T05:05:07.770Z,105.83
2024-03-02T05:06:11.153Z,106.67
2024-03-02T05:07:14.991Z,109.33
2024-03-02T05:08:20.955Z,107.83
2024-03-02T05:09:24.336Z,100.17
2024-03-02T05:10:28.517Z,97.00
2024-03-02T05:12:10.136Z,97.50
2024-03-02T05:13:16.610Z,100.17
2024-03-02T05:14:20.004Z,104.50
2024-03-02T05:15:28.062Z,106.50
2024-03-02T05:16:38.031Z,107.67
2024-03-02T05:17:46.588Z,108.67
2024-03-02T05:18:49.931Z,110.50
2024-03-02T05:19:53.082Z,113.33
2024-03-02T05:20:56.436Z,116.00
2024-03-02T05:21:59.613Z,118.00
2024-03-02T05:23:04.893Z,121.50
2024-03-02T05:24:08.261Z,130.67
2024-03-02T05:25:12.319Z,133.50
2024-03-02T05:26:20.189Z,136.17
2024-03-02T05:27:23.840Z,142.67
2024-03-02T05:28:27.100Z,156.00
2024-03-02T05:29:30.631Z,165.33
2024-03-02T05:30:34.006Z,161.33
2024-03-02T05:31:37.502Z,155.17
2024-03-02T05:32:40.699Z,153.00
2024-03-02T05:33:47.699Z,149.83
2024-03-02T05:34:52.005Z,148.67
2024-03-02T05:35:55.658Z,145.33
2024-03-02T05:37:00.722Z,131.50
2024-03-02T05:38:05.877Z,130.67
2024-03-02T05:39:10.281Z,136.67
2024-03-02T05:40:17.576Z,141.00
2024-03-02T05:41:22.218Z,141.83
2024-03-02T05:42:25.662Z,142.67
2024-03-02T05:43:29.849Z,144.33
2024-03-02T05:44:33.515Z,146.67
2024-03-02T05:45:37.004Z,146.00
2024-03-02T05:46:41.481Z,139.17
2024-03-02T05:47:49.888Z,111.17
2024-03-02T05:48:53.346Z,102.50
2024-03-02T05:49:56.470Z,98.50
2024-03-02T05:50:59.567Z,98.33
2024-03-02T05:52:04.658Z,97.17
2024-03-02T05:53:09.909Z,99.83
2024-03-02T05:54:15.636Z,101.67
2024-03-02T05:55:19.541Z,102.67
2024-03-02T05:56:22.629Z,102.17
2024-03-02T05:57:46.178Z,104.00
2024-03-02T05:58:51.820Z,105.50
2024-03-02T05:59:55.530Z,107.50
2024-03-02T06:00:59.865Z,112.67
2024-03-02T06:02:04.182Z,117.33
2024-03-02T06:03:07.469Z,129.00
2024-03-02T06:04:12.474Z,138.33
2024-03-02T06:05:17.251Z,141.67
2024-03-02T06:06:20.893Z,137.50
2024-03-02T06:07:24.371Z,134.17
2024-03-02T06:08:30.469Z,132.17
2024-03-02T06:09:33.859Z,130.50
2024-03-02T06:10:37.700Z,131.33
2024-03-02T06:11:43.495Z,132.83
2024-03-02T06:12:47.868Z,144.33
2024-03-02T06:13:51.065Z,150.50
2024-03-02T06:14:54.227Z,159.00
2024-03-02T06:15:58.223Z,162.00
2024-03-02T06:17:04.636Z,164.83
2024-03-02T06:18:09.178Z,170.17
2024-03-02T06:19:13.663Z,203.67
2024-03-02T06:20:17.074Z,232.67
2024-03-02T06:21:20.267Z,266.33
2024-03-02T06:22:26.221Z,293.67
2024-03-02T06:23:34.710Z,262.50
2024-03-02T06:24:41.784Z,219.33
2024-03-02T06:25:44.993Z,200.83
2024-03-02T06:26:48.320Z,194.00
2024-03-02T06:27:51.531Z,148.33
2024-03-02T06:28:55.016Z,114.17
2024-03-02T06:30:50.891Z,98.67
2024-03-02T06:31:55.292Z,113.00
2024-03-02T06:33:05.206Z,107.50
2024-03-02T06:34:09.930Z,124.17
2024-03-02T06:35:13.871Z,252.83
2024-03-02T06:36:18.529Z,208.50
2024-03-02T06:37:22.033Z,182.00
2024-03-02T06:38:30.170Z,180.67
2024-03-02T06:39:35.421Z,158.50
2024-03-02T06:40:42.034Z,181.00
2024-03-02T06:41:57.508Z,192.17
2024-03-02T06:43:00.851Z,186.17
2024-03-02T06:44:03.952Z,181.50
2024-03-02T06:45:08.705Z,162.50
2024-03-02T06:46:16.424Z,155.50
2024-03-02T06:47:21.677Z,195.33
2024-03-02T06:48:26.002Z,228.17
2024-03-02T06:49:31.844Z,159.33
2024-03-02T06:50:35.263Z,114.83
2024-03-02T06:51:38.433Z,101.50
2024-03-02T06:52:41.787Z,99.17
2024-03-02T06:53:45.027Z,113.83
2024-03-02T06:54:48.209Z,150.83
2024-03-02T06:55:51.366Z,184.67
2024-03-02T06:56:55.061Z,197.17
2024-03-02T06:58:01.639Z,190.00
2024-03-02T06:59:05.579Z,200.00
2024-03-02T07:00:11.785Z,219.00
2024-03-02T07:01:17.110Z,212.17
2024-03-02T07:02:21.293Z,200.17
2024-03-02T07:03:25.750Z,193.83
2024-03-02T07:04:29.032Z,192.00
2024-03-02T07:05:33.458Z,186.17
2024-03-02T07:06:38.538Z,172.83
2024-03-02T07:07:41.902Z,178.33
2024-03-02T07:08:46.807Z,233.00
2024-03-02T07:09:50.150Z,274.50
2024-03-02T07:10:53.590Z,279.67
2024-03-02T07:11:56.866Z,268.33
2024-03-02T07:13:03.759Z,269.17
2024-03-02T07:14:07.637Z,277.83
2024-03-02T07:15:23.006Z,277.17
2024-03-02T07:16:31.868Z,276.67
2024-03-02T07:17:35.436Z,272.67
2024-03-02T07:18:43.524Z,263.17
2024-03-02T07:19:48.971Z,259.33
2024-03-02T07:20:53.063Z,264.00
2024-03-02T07:21:56.346Z,263.17
2024-03-02T07:22:59.528Z,260.50
2024-03-02T07:24:11.256Z,259.50
2024-03-02T07:27:29.453Z,229.67
2024-03-02T07:28:58.027Z,220.50
2024-03-02T07:30:01.394Z,206.67
2024-03-02T07:31:06.311Z,202.33
2024-03-02T07:32:11.752Z,197.00
2024-03-02T07:33:17.548Z,218.00
2024-03-02T07:34:20.685Z,229.50
2024-03-02T07:35:27.910Z,196.17
2024-03-02T07:36:38.160Z,196.50
2024-03-02T07:37:50.166Z,206.00
2024-03-02T07:38:53.372Z,208.83
2024-03-02T07:39:59.671Z,199.50
2024-03-02T07:41:05.877Z,186.83
2024-03-02T07:42:09.604Z,201.50
2024-03-02T07:43:13.931Z,266.67
2024-03-02T07:44:17.920Z,298.50
2024-03-02T07:45:21.304Z,298.67
2024-03-02T07:46:25.666Z,252.00
2024-03-02T07:47:29.997Z,212.50
2024-03-02T07:48:36.140Z,164.50
2024-03-02T07:49:39.838Z,139.50
2024-03-02T07:50:44.365Z,137.50
2024-03-02T07:51:47.741Z,124.33
2024-03-02T07:52:51.384Z,114.83
2024-03-02T07:53:54.809Z,111.67
2024-03-02T07:54:58.625Z,95.83
2024-03-02T07:56:04.071Z,86.50
2024-03-02T07:57:07.262Z,84.67
2024-03-02T07:58:12.858Z,96.50
2024-03-02T07:59:15.937Z,101.83
2024-03-02T08:00:19.520Z,89.83
2024-03-02T08:01:22.993Z,87.33
2024-03-02T08:02:26.446Z,91.17
2024-03-02T08:03:32.093Z,97.00
2024-03-02T08:04:38.678Z,100.67
2024-03-02T08:05:42.130Z,105.00
2024-03-02T08:06:46.992Z,106.17
2024-03-02T08:07:54.015Z,105.00
2024-03-02T08:09:02.416Z,99.83
2024-03-02T08:10:10.045Z,96.50
2024-03-02T08:11:19.421Z,101.67
2024-03-02T08:12:24.901Z,102.50
2024-03-02T08:13:28.064Z,96.83
2024-03-02T08:14:33.067Z,91.33
2024-03-02T08:15:36.205Z,92.00
2024-03-02T08:16:39.875Z,94.50
2024-03-02T08:17:50.071Z,95.67
2024-03-02T08:18:59.389Z,101.67
2024-03-02T08:20:04.392Z,104.33
2024-03-02T08:21:10.103Z,96.83
2024-03-02T08:22:14.835Z,92.00
2024-03-02T08:23:18.762Z,82.17
2024-03-02T08:24:21.880Z,74.83
2024-03-02T08:25:25.680Z,78.50
2024-03-02T08:26:33.238Z,79.83
2024-03-02T08:27:41.225Z,71.83
2024-03-02T08:28:44.517Z,63.67
2024-03-02T08:29:47.926Z,60.00
2024-03-02T08:30:52.609Z,62.33
2024-03-02T08:31:57.521Z,66.50
2024-03-02T08:33:02.061Z,65.17
2024-03-02T08:34:05.660Z,65.83
2024-03-02T08:35:09.159Z,66.00
2024-03-02T08:36:14.295Z,65.33
2024-03-02T08:37:18.581Z,64.83
2024-03-02T08:38:22.681Z,64.83
2024-03-02T08:39:26.765Z,64.00
2024-03-02T08:40:31.741Z,63.50
2024-03-02T08:41:38.978Z,63.50
2024-03-02T08:42:42.761Z,65.17
2024-03-02T08:43:45.949Z,76.50
2024-03-02T08:44:49.464Z,88.83
2024-03-02T08:45:52.599Z,88.00
2024-03-02T08:46:58.805Z,88.83
2024-03-02T08:48:02.333Z,92.00
2024-03-02T08:49:08.981Z,94.83
2024-03-02T08:50:12.450Z,97.17
2024-03-02T08:51:17.975Z,97.33
2024-03-02T08:52:21.538Z,99.17
2024-03-02T08:53:24.671Z,106.67
2024-03-02T08:54:27.878Z,110.17
2024-03-02T08:55:33.459Z,114.17
2024-03-02T08:56:39.775Z,106.83
2024-03-02T08:57:43.837Z,102.00
2024-03-02T08:58:47.105Z,83.33
2024-03-02T08:59:51.753Z,74.17
2024-03-02T09:00:54.982Z,73.00
2024-03-02T09:02:02.723Z,68.17
2024-03-02T09:03:06.837Z,63.17
2024-03-02T09:04:14.032Z,67.50
2024-03-02T09:05:17.821Z,65.17
2024-03-02T09:06:22.990Z,60.33
2024-03-02T09:07:27.578Z,63.00
2024-03-02T09:08:31.361Z,65.00
2024-03-02T09:09:34.699Z,64.67
2024-03-02T09:10:40.612Z,64.83
2024-03-02T09:11:44.368Z,65.67
2024-03-02T09:12:47.827Z,64.50
2024-03-02T09:13:52.773Z,65.33
2024-03-02T09:14:56.237Z,74.33
2024-03-02T09:15:59.576Z,77.33
2024-03-02T09:17:03.762Z,75.83
2024-03-02T09:18:10.934Z,72.50
2024-03-02T09:19:14.519Z,66.00
2024-03-02T09:20:18.797Z,65.67
2024-03-02T09:21:23.114Z,95.00
2024-03-02T09:22:28.085Z,88.50
2024-03-02T09:23:31.256Z,83.83
2024-03-02T09:24:37.698Z,74.33
2024-03-02T09:25:41.666Z,67.17
2024-03-02T09:26:47.862Z,67.00
2024-03-02T09:27:51.264Z,64.17
2024-03-02T09:28:54.694Z,55.67
2024-03-02T09:29:58.055Z,54.33
2024-03-02T09:31:26.357Z,54.17
2024-03-02T09:32:32.102Z,56.17
2024-03-02T09:33:36.602Z,55.83
2024-03-02T09:34:41.952Z,52.33
2024-03-02T09:35:54.290Z,50.33
2024-03-02T09:36:58.476Z,48.17
2024-03-02T09:38:01.828Z,46.17
2024-03-02T09:39:05.531Z,43.67
2024-03-02T09:40:10.440Z,44.33
2024-03-02T09:41:15.944Z,45.83
2024-03-02T09:42:19.950Z,47.00
2024-03-02T09:43:26.043Z,47.83
2024-03-02T09:44:31.228Z,48.00
2024-03-02T09:45:35.697Z,48.00
2024-03-02T09:46:41.015Z,47.83
2024-03-02T09:47:48.916Z,46.50
2024-03-02T09:48:52.405Z,45.17
2024-03-02T09:49:57.258Z,41.00
2024-03-02T09:51:05.088Z,44.33
2024-03-02T09:52:10.069Z,63.17
2024-03-02T09:53:16.746Z,71.00
2024-03-02T09:54:22.957Z,67.67
2024-03-02T09:55:26.955Z,53.50
2024-03-02T09:56:31.187Z,41.67
2024-03-02T09:57:34.468Z,37.17
2024-03-02T09:58:40.506Z,34.17
2024-03-02T09:59:43.772Z,27.17
2024-03-02T10:00:46.976Z,22.00
2024-03-02T10:02:04.274Z,21.67
2024-03-02T10:03:15.731Z,25.00
2024-03-02T10:04:22.518Z,22.50
2024-03-02T10:05:30.115Z,23.83
2024-03-02T10:06:37.606Z,24.33
2024-03-02T10:08:05.208Z,23.83
2024-03-02T10:09:09.464Z,21.50
2024-03-02T10:10:17.169Z,19.00
2024-03-02T10:11:32.153Z,17.67
2024-03-02T10:12:35.572Z,18.00
2024-03-02T10:13:39.544Z,18.33
2024-03-02T10:14:44.079Z,19.00
2024-03-02T10:15:48.071Z,20.00
2024-03-02T10:16:51.267Z,20.33
2024-03-02T10:17:54.817Z,21.00
2024-03-02T10:18:59.262Z,20.00
2024-03-02T10:20:26.442Z,19.33
2024-03-02T10:21:30.603Z,20.00
2024-03-02T10:22:34.544Z,20.00
2024-03-02T10:23:38.170Z,19.50
2024-03-02T10:24:46.511Z,18.00
2024-03-02T10:25:55.270Z,16.33
2024-03-02T10:27:01.547Z,15.00
2024-03-02T10:28:07.616Z,15.67
2024-03-02T10:29:13.318Z,16.83
2024-03-02T10:30:18.202Z,17.00
2024-03-02T10:31:28.323Z,17.00
2024-03-02T10:32:31.981Z,17.50
2024-03-02T10:33:35.366Z,17.67
2024-03-02T10:34:41.369Z,17.33
2024-03-02T10:35:50.779Z,18.00
2024-03-02T10:36:56.163Z,18.00
2024-03-02T10:38:01.825Z,18.00
2024-03-02T10:39:06.247Z,17.67
2024-03-02T10:40:16.921Z,16.83
2024-03-02T10:41:20.195Z,16.00
2024-03-02T10:42:24.728Z,16.00
2024-03-02T10:43:28.666Z,16.00
2024-03-02T10:44:35.580Z,15.17
2024-03-02T10:45:40.356Z,15.00
2024-03-02T10:46:46.941Z,15.00
2024-03-02T10:47:51.390Z,15.00
2024-03-02T10:48:54.678Z,15.67
2024-03-02T10:50:00.577Z,16.17
2024-03-02T10:51:03.946Z,17.67
2024-03-02T10:52:07.407Z,18.00
2024-03-02T10:53:13.511Z,18.00
2024-03-02T10:54:20.414Z,18.17
2024-03-02T10:55:24.174Z,19.00
2024-03-02T10:56:30.885Z,20.50
2024-03-02T10:57:55.298Z,21.83
2024-03-02T10:59:27.623Z,22.00
2024-03-02T11:00:38.470Z,21.83
2024-03-02T11:01:45.001Z,21.00
2024-03-02T11:02:53.517Z,21.00
2024-03-02T11:04:04.015Z,21.00
2024-03-02T11:05:12.330Z,20.17
2024-03-02T11:06:15.667Z,21.00
2024-03-02T11:07:24.991Z,20.50
2024-03-02T11:08:30.673Z,17.83
2024-03-02T11:09:46.305Z,16.67
2024-03-02T11:10:59.925Z,16.00
2024-03-02T11:12:45.701Z,16.00
2024-03-02T11:13:51.956Z,17.00
2024-03-02T11:14:57.537Z,18.00
2024-03-02T11:16:13.494Z,18.00
2024-03-02T11:17:21.762Z,18.00
2024-03-02T11:18:27.254Z,18.33
2024-03-02T11:19:33.839Z,20.33
2024-03-02T11:20:51.408Z,26.67
2024-03-02T11:21:55.560Z,42.17
2024-03-02T11:22:58.782Z,35.83
2024-03-02T11:24:03.711Z,27.83
2024-03-02T11:25:28.968Z,18.50
2024-03-02T11:26:42.408Z,14.17
2024-03-02T11:27:54.829Z,12.33
2024-03-02T11:28:59.768Z,13.00
2024-03-02T11:30:08.382Z,13.00
2024-03-02T11:31:16.719Z,12.33
2024-03-02T11:32:25.077Z,13.00
2024-03-02T11:33:30.983Z,12.83
2024-03-02T11:34:40.664Z,12.00
2024-03-02T11:35:48.852Z,11.00
2024-03-02T11:36:52.925Z,11.00
2024-03-02T11:37:56.552Z,11.00
2024-03-02T11:39:00.757Z,12.50
2024-03-02T11:40:04.476Z,13.00
2024-03-02T11:41:10.813Z,13.00
2024-03-02T11:42:16.009Z,13.00
2024-03-02T11:43:21.804Z,12.00
2024-03-02T11:44:31.042Z,12.00
2024-03-02T11:45:35.147Z,12.17
2024-03-02T11:46:41.544Z,13.33
2024-03-02T11:48:14.896Z,15.83
2024-03-02T11:49:44.457Z,15.50
2024-03-02T11:50:52.802Z,14.17
2024-03-02T11:52:03.544Z,14.00
2024-03-02T11:53:12.020Z,14.50
2024-03-02T11:54:16.294Z,15.50
2024-03-02T11:55:24.286Z,16.33
2024-03-02T11:56:32.896Z,17.50
2024-03-02T11:57:43.111Z,18.00
2024-03-02T11:59:11.200Z,18.00
2024-03-02T12:00:21.734Z,19.00
2024-03-02T12:01:25.659Z,19.00
2024-03-02T12:02:29.075Z,18.17
2024-03-02T12:03:37.496Z,19.00
2024-03-02T12:04:43.476Z,18.17
2024-03-02T12:05:53.650Z,17.33
2024-03-02T12:07:01.847Z,16.50
2024-03-02T12:08:07.747Z,16.00
2024-03-02T12:09:16.093Z,15.33
2024-03-02T12:10:20.277Z,15.00
2024-03-02T12:11:23.638Z,15.00
2024-03-02T12:12:31.016Z,14.17
2024-03-02T12:13:36.298Z,14.00
2024-03-02T12:14:42.475Z,14.00
2024-03-02T12:15:46.058Z,14.00
2024-03-02T12:16:50.534Z,15.00
2024-03-02T12:18:12.573Z,15.83
2024-03-02T12:19:19.118Z,16.00
2024-03-02T12:20:22.533Z,17.67
2024-03-02T12:21:25.700Z,30.33
2024-03-02T12:22:32.827Z,36.33
2024-03-02T12:23:36.800Z,40.83
2024-03-02T12:24:40.805Z,50.67
2024-03-02T12:25:44.646Z,55.17
2024-03-02T12:26:52.684Z,51.83
2024-03-02T12:28:00.331Z,49.83
2024-03-02T12:29:03.912Z,55.50
2024-03-02T12:30:12.176Z,50.33
2024-03-02T12:31:16.589Z,48.00
2024-03-02T12:32:20.969Z,45.50
2024-03-02T12:33:28.947Z,42.33
2024-03-02T12:34:33.040Z,38.00
2024-03-02T12:35:38.603Z,34.17
2024-03-02T12:36:43.112Z,31.00
2024-03-02T12:37:48.221Z,31.33
2024-03-02T12:38:54.805Z,32.00
2024-03-02T12:39:58.221Z,32.33
2024-03-02T12:41:01.491Z,33.00
2024-03-02T12:42:04.659Z,32.00
2024-03-02T12:43:10.943Z,33.17
2024-03-02T12:44:14.635Z,34.00
2024-03-02T12:45:25.942Z,35.00
2024-03-02T12:46:29.659Z,34.67
2024-03-02T12:47:33.719Z,29.67
2024-03-02T12:48:37.599Z,25.00
2024-03-02T12:49:44.584Z,25.00
2024-03-02T12:50:48.053Z,26.00
2024-03-02T12:51:55.063Z,25.33
2024-03-02T12:52:58.978Z,23.33
2024-03-02T12:54:06.604Z,24.17
2024-03-02T12:55:13.644Z,25.00
2024-03-02T12:56:22.668Z,24.33
2024-03-02T12:57:29.374Z,19.50
2024-03-02T12:58:41.720Z,16.17
2024-03-02T12:59:47.996Z,16.33
2024-03-02T13:00:51.264Z,17.00
2024-03-02T13:01:55.688Z,17.00
2024-03-02T13:03:03.745Z,17.83
2024-03-02T13:04:11.623Z,18.00
2024-03-02T13:05:14.973Z,17.67
2024-03-02T13:06:21.392Z,15.83
2024-03-02T13:07:32.178Z,15.50
2024-03-02T13:08:36.492Z,21.50
2024-03-02T13:09:42.701Z,28.00
2024-03-02T13:10:46.826Z,27.33
2024-03-02T13:11:50.621Z,26.33
2024-03-02T13:12:57.861Z,25.50
2024-03-02T13:14:02.409Z,24.00
2024-03-02T13:15:07.162Z,23.33
2024-03-02T13:16:14.181Z,20.83
2024-03-02T13:17:24.400Z,20.00
2024-03-02T13:18:29.534Z,21.00
2024-03-02T13:19:32.991Z,22.00
2024-03-02T13:20:36.877Z,22.83
2024-03-02T13:21:41.273Z,23.00
2024-03-02T13:22:44.799Z,23.33
2024-03-02T13:23:48.532Z,25.17
2024-03-02T13:24:53.438Z,27.67
2024-03-02T13:25:56.800Z,29.50
2024-03-02T13:27:01.165Z,30.17
2024-03-02T13:28:06.199Z,34.50
2024-03-02T13:29:09.467Z,35.00
2024-03-02T13:30:12.757Z,35.50
2024-03-02T13:31:16.580Z,38.17
2024-03-02T13:32:24.989Z,38.33
2024-03-02T13:33:28.604Z,37.00
2024-03-02T13:34:34.889Z,36.50
2024-03-02T13:35:38.262Z,41.67
2024-03-02T13:36:41.821Z,50.50
2024-03-02T13:37:45.444Z,48.33
2024-03-02T13:38:48.931Z,45.67
2024-03-02T13:39:53.887Z,37.83
2024-03-02T13:41:02.349Z,22.50
2024-03-02T13:42:12.501Z,17.83
2024-03-02T13:43:18.064Z,20.00
2024-03-02T13:44:23.108Z,26.67
2024-03-02T13:45:26.474Z,48.67
2024-03-02T13:46:30.045Z,46.00
2024-03-02T13:47:34.373Z,43.83
2024-03-02T13:48:37.879Z,41.33
2024-03-02T13:49:45.060Z,41.00
2024-03-02T13:50:48.449Z,41.00
2024-03-02T13:51:51.578Z,40.17
2024-03-02T13:52:54.803Z,36.17
2024-03-02T13:53:58.165Z,27.67
2024-03-02T13:55:01.470Z,22.67
2024-03-02T13:56:08.404Z,20.50
2024-03-02T13:57:17.598Z,20.00